Saint-Elie-D'Orford, Canada
Current Conditions -  °F | °C
As of 8:32 PM on Tuesday 27 Jan 2015 (Local Time) from CYSC Reporting Station
Light Snow Light Snow  
Wind Chill: -5°   Ceiling: 3400
Heat Index:   Visibility: 5mi
Dew Point:   Wind: 7mph
Humidity: 79%   Direction: 350°N
Pressure: 29.85"   Gusts: NA
Location:  45.4°N, 72.03°W
Report Text: CYSC 280132Z AUTO 35006KT 320V030 5SM -SN OVC034 M14/M17 A2985 RMK SLP129
Loading
Personal Weather Stations






























Interactive Weather Map New forecast layout! Learn more

10-Day Weather Forecast

Advertisements
Track Severe Weather on mobile